createdAt,value
2022-10-01T00:01:39.485Z,5.72
2022-10-01T00:04:10.475Z,6.38
2022-10-01T00:06:42.101Z,9.20
2022-10-01T00:09:11.120Z,6.38
2022-10-01T00:11:47.456Z,7.35
2022-10-01T00:14:18.473Z,8.00
2022-10-01T00:16:48.286Z,5.50
2022-10-01T00:19:31.919Z,6.65
2022-10-01T00:22:02.446Z,7.05
2022-10-01T00:24:32.002Z,8.77
2022-10-01T00:27:02.396Z,10.32
2022-10-01T00:29:32.901Z,12.77
2022-10-01T00:32:27.720Z,7.78
2022-10-01T00:35:05.516Z,6.40
2022-10-01T00:37:37.311Z,5.57
2022-10-01T00:40:08.298Z,11.07
2022-10-01T00:42:39.152Z,12.85
2022-10-01T00:45:16.471Z,10.63
2022-10-01T00:47:59.644Z,9.30
2022-10-01T00:50:34.339Z,7.30
2022-10-01T00:53:12.884Z,8.13
2022-10-01T00:55:49.230Z,8.85
2022-10-01T00:58:17.960Z,6.88
2022-10-01T01:00:51.858Z,9.00
2022-10-01T01:03:22.115Z,6.30
2022-10-01T01:05:52.887Z,6.63
2022-10-01T01:08:23.013Z,6.32
2022-10-01T01:11:36.517Z,10.17
2022-10-01T01:14:21.923Z,5.45
2022-10-01T01:17:01.095Z,3.70
2022-10-01T01:19:52.239Z,6.30
2022-10-01T01:22:26.247Z,6.55
2022-10-01T01:25:17.902Z,7.40
2022-10-01T01:28:11.213Z,5.55
2022-10-01T01:30:42.906Z,6.07
2022-10-01T01:33:21.992Z,5.30
2022-10-01T01:36:04.842Z,5.78
2022-10-01T01:38:43.572Z,2.53
2022-10-01T01:41:20.304Z,8.20
2022-10-01T01:43:53.239Z,5.60
2022-10-01T01:46:25.858Z,4.80
2022-10-01T01:48:54.520Z,6.95
2022-10-01T01:54:43.842Z,5.53
2022-10-01T01:57:18.033Z,5.75
2022-10-01T01:59:52.318Z,3.95
2022-10-01T02:02:36.091Z,6.53
2022-10-01T02:05:19.360Z,5.60
2022-10-01T02:08:29.111Z,8.50
2022-10-01T02:11:20.177Z,5.63
2022-10-01T02:14:21.671Z,5.28
2022-10-01T02:17:24.244Z,5.57
2022-10-01T02:20:00.405Z,6.00
2022-10-01T02:22:46.031Z,5.57
2022-10-01T02:25:18.787Z,4.57
2022-10-01T02:28:03.105Z,5.57
2022-10-01T02:30:37.965Z,6.13
2022-10-01T02:33:15.178Z,2.50
2022-10-01T02:35:48.997Z,5.70
2022-10-01T02:38:24.310Z,6.22
2022-10-01T02:40:57.752Z,3.28
2022-10-01T02:43:48.068Z,4.57
2022-10-01T02:46:41.487Z,2.75
2022-10-01T02:49:14.572Z,4.03
2022-10-01T02:52:03.871Z,3.03
2022-10-01T02:55:09.045Z,4.25
2022-10-01T02:57:41.980Z,7.35
2022-10-01T03:00:39.217Z,4.53
2022-10-01T03:03:12.284Z,2.95
2022-10-01T03:05:47.871Z,3.33
2022-10-01T03:08:20.076Z,4.10
2022-10-01T03:10:49.643Z,6.93
2022-10-01T03:13:20.420Z,1.73
2022-10-01T03:15:51.132Z,8.10
2022-10-01T03:18:24.353Z,3.42
2022-10-01T03:21:00.010Z,4.88
2022-10-01T03:23:32.289Z,3.88
2022-10-01T03:26:06.245Z,5.68
2022-10-01T03:28:36.258Z,3.85
2022-10-01T03:31:11.046Z,4.45
2022-10-01T03:33:46.000Z,3.78
2022-10-01T03:36:16.624Z,2.92
2022-10-01T03:38:47.144Z,6.20
2022-10-01T03:41:17.605Z,4.35
2022-10-01T03:44:00.259Z,2.53
2022-10-01T03:46:32.491Z,2.80
2022-10-01T03:49:04.706Z,6.32
2022-10-01T03:51:38.329Z,4.85
2022-10-01T03:54:11.701Z,4.22
2022-10-01T03:56:43.227Z,5.40
2022-10-01T03:59:13.941Z,8.05
2022-10-01T04:01:45.769Z,5.13
2022-10-01T04:04:18.480Z,5.75
2022-10-01T04:06:51.131Z,6.15
2022-10-01T04:09:20.183Z,7.88
2022-10-01T04:11:50.923Z,3.13
2022-10-01T04:14:22.076Z,3.65
2022-10-01T04:16:55.636Z,3.58
2022-10-01T04:19:24.153Z,6.45
2022-10-01T04:21:53.475Z,6.38
2022-10-01T04:24:25.008Z,2.42
2022-10-01T04:26:59.917Z,3.90
2022-10-01T04:29:38.077Z,2.70
2022-10-01T04:32:14.395Z,2.90
2022-10-01T04:34:54.281Z,4.53
2022-10-01T04:37:27.410Z,3.70
2022-10-01T04:40:04.941Z,4.53
2022-10-01T04:42:36.146Z,4.20
2022-10-01T04:45:06.252Z,7.30
2022-10-01T04:47:43.997Z,5.53
2022-10-01T04:50:16.872Z,6.78
2022-10-01T04:52:52.599Z,6.55
2022-10-01T04:55:24.424Z,7.15
2022-10-01T04:57:56.569Z,5.93
2022-10-01T05:00:26.979Z,7.70
2022-10-01T05:03:00.038Z,12.65
2022-10-01T05:05:36.034Z,8.95
2022-10-01T05:08:07.158Z,5.07
2022-10-01T05:10:36.471Z,6.00
2022-10-01T05:13:08.457Z,6.45
2022-10-01T05:15:55.795Z,6.32
2022-10-01T05:18:27.851Z,6.88
2022-10-01T05:20:57.376Z,7.10
2022-10-01T05:23:30.201Z,10.25
2022-10-01T05:26:09.710Z,5.88
2022-10-01T05:28:45.679Z,10.00
2022-10-01T05:31:19.506Z,9.48
2022-10-01T05:34:00.479Z,6.93
2022-10-01T05:36:30.964Z,6.03
2022-10-01T05:39:07.572Z,6.47
2022-10-01T05:41:38.196Z,8.27
2022-10-01T05:44:09.654Z,5.75
2022-10-01T05:46:41.574Z,4.18
2022-10-01T05:49:13.507Z,4.57
2022-10-01T05:51:50.005Z,8.68
2022-10-01T05:54:26.248Z,6.43
2022-10-01T05:57:01.544Z,14.73
2022-10-01T05:59:34.029Z,9.77
2022-10-01T06:02:07.930Z,7.50
2022-10-01T06:04:41.957Z,10.57
2022-10-01T06:09:45.276Z,6.28
2022-10-01T06:12:17.732Z,9.82
2022-10-01T06:14:49.723Z,6.00
2022-10-01T06:17:22.221Z,12.98
2022-10-01T06:19:52.147Z,5.78
2022-10-01T06:22:30.344Z,7.53
2022-10-01T06:25:02.871Z,9.50
2022-10-01T06:27:34.276Z,12.23
2022-10-01T06:30:05.258Z,9.18
2022-10-01T06:32:35.726Z,9.90
2022-10-01T06:35:13.115Z,7.55
2022-10-01T06:37:45.397Z,9.30
2022-10-01T06:40:14.934Z,4.80
2022-10-01T06:42:52.728Z,10.85
2022-10-01T06:45:31.519Z,7.03
2022-10-01T06:48:04.161Z,9.45
2022-10-01T06:53:07.401Z,11.82
2022-10-01T06:55:38.284Z,6.15
2022-10-01T06:58:17.790Z,5.47
2022-10-01T07:01:00.695Z,7.75
2022-10-01T07:03:35.251Z,8.50
2022-10-01T07:06:09.254Z,5.05
2022-10-01T07:08:56.323Z,4.38
2022-10-01T07:11:28.535Z,4.30
2022-10-01T07:14:02.032Z,4.22
2022-10-01T07:16:29.693Z,5.05
2022-10-01T07:19:05.383Z,6.10
2022-10-01T07:24:10.547Z,6.82
2022-10-01T07:26:39.743Z,4.72
2022-10-01T07:29:13.519Z,9.70
2022-10-01T07:31:56.412Z,9.50
2022-10-01T07:34:28.884Z,3.83
2022-10-01T07:37:00.880Z,3.35
2022-10-01T07:39:47.145Z,6.93
2022-10-01T07:42:22.525Z,5.65
2022-10-01T07:44:57.580Z,4.88
2022-10-01T07:47:26.758Z,4.68
2022-10-01T07:49:55.159Z,5.97
2022-10-01T07:52:26.383Z,6.05
2022-10-01T07:55:00.875Z,8.18
2022-10-01T07:57:36.057Z,10.10
2022-10-01T08:00:14.908Z,10.85
2022-10-01T08:03:00.576Z,7.50
2022-10-01T08:05:50.103Z,12.77
2022-10-01T08:08:21.449Z,9.07
2022-10-01T08:11:16.274Z,16.75
2022-10-01T08:13:51.915Z,38.75
2022-10-01T08:16:24.107Z,38.88
2022-10-01T08:18:58.972Z,30.00
2022-10-01T08:21:35.677Z,15.27
2022-10-01T08:24:09.788Z,8.30
2022-10-01T08:26:40.441Z,10.13
2022-10-01T08:29:14.811Z,11.70
2022-10-01T08:31:47.726Z,5.78
2022-10-01T08:36:57.299Z,6.05
2022-10-01T08:39:28.683Z,8.63
2022-10-01T08:42:43.133Z,7.18
2022-10-01T08:45:37.537Z,4.20
2022-10-01T08:48:33.901Z,5.25
2022-10-01T08:51:26.740Z,5.97
2022-10-01T08:54:09.543Z,5.88
2022-10-01T08:56:42.630Z,12.02
2022-10-01T08:59:38.420Z,17.07
2022-10-01T09:02:38.355Z,18.67
2022-10-01T09:05:15.845Z,43.35
2022-10-01T09:08:04.492Z,22.20
2022-10-01T09:10:50.999Z,14.20
2022-10-01T09:13:49.331Z,11.07
2022-10-01T09:16:49.462Z,18.55
2022-10-01T09:19:55.700Z,10.40
2022-10-01T09:22:31.842Z,13.32
2022-10-01T09:25:31.387Z,7.60
2022-10-01T09:28:23.005Z,10.93
2022-10-01T09:31:12.186Z,13.60
2022-10-01T09:33:58.472Z,12.18
2022-10-01T09:36:34.918Z,12.57
2022-10-01T09:39:31.680Z,13.25
2022-10-01T09:42:05.077Z,6.07
2022-10-01T09:44:40.520Z,8.30
2022-10-01T09:47:23.540Z,8.05
2022-10-01T09:52:38.183Z,9.32
2022-10-01T09:55:32.497Z,7.50
2022-10-01T10:00:40.253Z,5.45
2022-10-01T10:03:10.483Z,7.82
2022-10-01T10:05:48.644Z,7.20
2022-10-01T10:08:44.128Z,4.72
2022-10-01T10:11:33.265Z,11.38
2022-10-01T10:14:06.821Z,8.02
2022-10-01T10:16:38.695Z,8.18
2022-10-01T10:19:30.497Z,10.82
2022-10-01T10:22:14.490Z,6.50
2022-10-01T10:24:46.157Z,10.43
2022-10-01T10:27:29.203Z,7.13
2022-10-01T10:30:18.286Z,7.03
2022-10-01T10:32:47.911Z,12.18
2022-10-01T10:35:28.210Z,9.15
2022-10-01T10:37:57.784Z,16.10
2022-10-01T10:40:34.984Z,11.93
2022-10-01T10:43:16.824Z,15.57
2022-10-01T10:45:48.548Z,10.77
2022-10-01T10:48:22.150Z,11.85
2022-10-01T10:51:00.278Z,11.02
2022-10-01T10:53:38.274Z,10.13
2022-10-01T10:56:25.932Z,6.75
2022-10-01T10:59:08.351Z,9.50
2022-10-01T11:01:51.877Z,29.42
2022-10-01T11:04:38.577Z,11.65
2022-10-01T11:07:07.829Z,14.18
2022-10-01T11:09:57.776Z,8.68
2022-10-01T11:12:43.967Z,9.30
2022-10-01T11:15:32.232Z,10.93
2022-10-01T11:18:17.608Z,6.82
2022-10-01T11:21:26.191Z,8.60
2022-10-01T11:24:09.612Z,12.98
2022-10-01T11:27:01.605Z,16.98
2022-10-01T11:29:59.834Z,10.52
2022-10-01T11:32:57.178Z,7.15
2022-10-01T11:36:00.253Z,15.30
2022-10-01T11:38:49.319Z,9.43
2022-10-01T11:41:28.064Z,12.48
2022-10-01T11:44:19.198Z,7.20
2022-10-01T11:47:21.619Z,9.77
2022-10-01T11:50:08.713Z,10.38
2022-10-01T11:52:45.328Z,10.40
2022-10-01T11:56:00.873Z,9.30
2022-10-01T11:58:54.538Z,8.93
2022-10-01T12:01:44.973Z,11.80
2022-10-01T12:04:46.033Z,11.05
2022-10-01T12:07:35.139Z,5.15
2022-10-01T12:10:43.329Z,12.10
2022-10-01T12:13:41.461Z,9.43
2022-10-01T12:16:16.904Z,10.98
2022-10-01T12:21:53.442Z,8.20
2022-10-01T12:24:36.864Z,14.13
2022-10-01T12:27:31.067Z,10.25
2022-10-01T12:30:26.386Z,17.17
2022-10-01T12:33:42.869Z,14.45
2022-10-01T12:36:37.404Z,11.30
2022-10-01T12:39:20.413Z,10.57
2022-10-01T12:42:09.332Z,10.68
2022-10-01T12:44:52.022Z,15.30
2022-10-01T12:48:00.241Z,12.25
2022-10-01T12:51:03.021Z,14.80
2022-10-01T12:53:49.301Z,7.63
2022-10-01T12:56:40.268Z,11.23
2022-10-01T12:59:36.006Z,9.55
2022-10-01T13:02:56.212Z,10.95
2022-10-01T13:05:56.286Z,9.55
2022-10-01T13:08:41.111Z,8.57
2022-10-01T13:12:03.388Z,12.63
2022-10-01T13:14:38.901Z,8.50
2022-10-01T13:17:43.165Z,7.57
2022-10-01T13:20:19.030Z,7.13
2022-10-01T13:23:01.987Z,7.95
2022-10-01T13:25:43.855Z,5.47
2022-10-01T13:28:35.335Z,5.10
2022-10-01T13:31:18.893Z,6.57
2022-10-01T13:33:58.436Z,4.57
2022-10-01T13:36:41.292Z,6.25
2022-10-01T13:39:24.456Z,5.03
2022-10-01T13:42:01.633Z,6.10
2022-10-01T13:44:39.960Z,8.60
2022-10-01T13:47:16.707Z,11.40
2022-10-01T13:49:57.286Z,5.10
2022-10-01T13:52:29.939Z,4.40
2022-10-01T13:55:05.827Z,6.88
2022-10-01T13:57:42.469Z,11.23
2022-10-01T14:00:29.592Z,11.35
2022-10-01T14:03:42.179Z,7.43
2022-10-01T14:09:00.818Z,5.07
2022-10-01T14:11:52.852Z,7.18
2022-10-01T14:14:58.763Z,8.00
2022-10-01T14:17:31.501Z,11.50
2022-10-01T14:20:03.920Z,8.85
2022-10-01T14:23:19.151Z,13.98
2022-10-01T14:26:14.179Z,25.08
2022-10-01T14:29:19.120Z,18.50
2022-10-01T14:32:24.445Z,18.95
2022-10-01T14:35:04.396Z,5.75
2022-10-01T14:37:39.071Z,5.45
2022-10-01T14:40:23.258Z,4.38
2022-10-01T14:43:20.877Z,13.10
2022-10-01T14:46:14.737Z,6.10
2022-10-01T14:49:08.254Z,6.38
2022-10-01T14:51:51.988Z,4.68
2022-10-01T14:54:44.290Z,6.40
2022-10-01T14:57:28.578Z,6.68
2022-10-01T15:00:15.306Z,7.25
2022-10-01T15:02:54.367Z,5.22
2022-10-01T15:05:37.999Z,4.10
2022-10-01T15:08:24.567Z,8.45
2022-10-01T15:11:01.296Z,4.70
2022-10-01T15:13:37.975Z,7.80
2022-10-01T15:16:17.914Z,4.90
2022-10-01T15:18:58.810Z,2.17
2022-10-01T15:21:54.719Z,4.43
2022-10-01T15:24:38.153Z,6.88
2022-10-01T15:27:15.547Z,3.35
2022-10-01T15:29:44.709Z,7.22
2022-10-01T15:32:19.237Z,3.05
2022-10-01T15:34:59.902Z,6.13
2022-10-01T15:37:47.992Z,6.35
2022-10-01T15:40:35.699Z,6.57
2022-10-01T15:43:15.714Z,8.13
2022-10-01T15:46:16.884Z,4.28
2022-10-01T15:48:47.042Z,5.68
2022-10-01T15:51:29.006Z,7.38
2022-10-01T15:54:17.686Z,20.45
2022-10-01T15:56:52.290Z,10.82
2022-10-01T15:59:23.870Z,2.67
2022-10-01T16:01:54.981Z,18.73
2022-10-01T16:04:27.624Z,13.20
2022-10-01T16:07:02.242Z,13.32
2022-10-01T16:09:37.210Z,21.83
2022-10-01T16:12:12.838Z,20.77
2022-10-01T16:14:50.303Z,17.20
2022-10-01T16:17:29.152Z,18.73
2022-10-01T16:20:20.346Z,14.82
2022-10-01T16:22:48.061Z,10.07
2022-10-01T16:25:26.579Z,10.07
2022-10-01T16:28:02.257Z,5.53
2022-10-01T16:30:36.270Z,5.32
2022-10-01T16:33:07.640Z,14.60
2022-10-01T16:35:41.549Z,14.93
2022-10-01T16:38:26.793Z,5.20
2022-10-01T16:40:57.662Z,13.00
2022-10-01T16:43:27.376Z,6.50
2022-10-01T16:45:58.140Z,6.75
2022-10-01T16:48:28.293Z,9.70
2022-10-01T16:51:02.060Z,8.80
2022-10-01T16:53:36.454Z,17.98
2022-10-01T16:56:07.262Z,18.45
2022-10-01T16:58:37.149Z,9.02
2022-10-01T17:01:14.194Z,11.60
2022-10-01T17:03:46.692Z,7.13
2022-10-01T17:06:18.649Z,10.35
2022-10-01T17:08:51.854Z,9.07
2022-10-01T17:11:30.193Z,7.63
2022-10-01T17:14:00.510Z,4.47
2022-10-01T17:16:35.518Z,5.60
2022-10-01T17:19:09.519Z,5.88
2022-10-01T17:21:42.418Z,13.43
2022-10-01T17:24:13.774Z,8.50
2022-10-01T17:26:46.085Z,9.35
2022-10-01T17:29:20.132Z,4.82
2022-10-01T17:32:04.956Z,5.00
2022-10-01T17:34:42.828Z,5.50
2022-10-01T17:37:21.453Z,7.13
2022-10-01T17:39:53.868Z,5.95
2022-10-01T17:42:26.565Z,5.55
2022-10-01T17:44:58.323Z,6.35
2022-10-01T17:47:29.513Z,8.07
2022-10-01T17:50:06.637Z,12.13
2022-10-01T17:52:39.945Z,6.97
2022-10-01T17:55:15.211Z,7.38
2022-10-01T17:57:47.110Z,7.07
2022-10-01T18:00:14.830Z,7.75
2022-10-01T18:03:02.057Z,9.65
2022-10-01T18:05:35.026Z,11.02
2022-10-01T18:08:33.286Z,8.45
2022-10-01T18:11:16.344Z,7.93
2022-10-01T18:13:54.510Z,6.65
2022-10-01T18:16:26.297Z,8.60
2022-10-01T18:22:01.960Z,3.97
2022-10-01T18:24:30.521Z,6.45
2022-10-01T18:27:02.676Z,5.07
2022-10-01T18:29:33.941Z,5.85
2022-10-01T18:32:22.817Z,8.40
2022-10-01T18:35:00.630Z,8.48
2022-10-01T18:37:53.203Z,4.65
2022-10-01T18:40:49.910Z,7.57
2022-10-01T18:43:25.481Z,8.35
2022-10-01T18:46:33.281Z,5.75
2022-10-01T18:49:38.061Z,5.78
2022-10-01T18:52:48.479Z,3.65
2022-10-01T18:55:50.169Z,4.88
2022-10-01T18:59:05.202Z,3.10
2022-10-01T19:02:02.082Z,2.58
2022-10-01T19:04:40.596Z,4.03
2022-10-01T19:07:52.623Z,2.90
2022-10-01T19:10:48.784Z,3.05
2022-10-01T19:14:04.686Z,5.65
2022-10-01T19:16:57.269Z,3.25
2022-10-01T19:19:55.704Z,3.83
2022-10-01T19:22:56.529Z,3.58
2022-10-01T19:25:48.181Z,3.63
2022-10-01T19:28:48.226Z,4.95
2022-10-01T19:31:44.471Z,4.70
2022-10-01T19:34:47.680Z,3.65
2022-10-01T19:37:31.858Z,2.85
2022-10-01T19:40:28.989Z,7.85
2022-10-01T19:43:45.252Z,5.38
2022-10-01T19:46:29.882Z,4.88
2022-10-01T19:49:28.319Z,3.72
2022-10-01T19:52:05.698Z,3.90
2022-10-01T19:54:43.648Z,4.18
2022-10-01T19:57:31.279Z,5.35
2022-10-01T20:00:11.265Z,3.00
2022-10-01T20:03:20.115Z,5.13
2022-10-01T20:06:30.217Z,4.07
2022-10-01T20:09:13.884Z,4.47
2022-10-01T20:11:48.436Z,4.25
2022-10-01T20:15:02.859Z,5.47
2022-10-01T20:18:15.609Z,4.32
2022-10-01T20:21:19.826Z,6.82
2022-10-01T20:24:13.603Z,8.35
2022-10-01T20:27:23.280Z,7.85
2022-10-01T20:30:18.254Z,8.70
2022-10-01T20:33:06.924Z,7.78
2022-10-01T20:36:04.057Z,6.82
2022-10-01T20:38:43.330Z,9.20
2022-10-01T20:41:22.644Z,5.28
2022-10-01T20:44:01.633Z,7.22
2022-10-01T20:46:38.213Z,5.72
2022-10-01T20:49:32.287Z,5.60
2022-10-01T20:52:02.425Z,4.47
2022-10-01T20:54:56.243Z,3.20
2022-10-01T20:57:52.029Z,7.65
2022-10-01T21:00:28.600Z,5.13
2022-10-01T21:03:12.557Z,9.73
2022-10-01T21:05:47.642Z,5.50
2022-10-01T21:08:49.113Z,4.43
2022-10-01T21:11:30.619Z,4.95
2022-10-01T21:14:44.594Z,6.20
2022-10-01T21:17:53.369Z,6.78
2022-10-01T21:20:56.899Z,5.13
2022-10-01T21:23:58.609Z,3.65
2022-10-01T21:27:01.435Z,4.93
2022-10-01T21:30:09.849Z,9.60
2022-10-01T21:33:09.252Z,3.22
2022-10-01T21:36:20.846Z,7.68
2022-10-01T21:39:00.357Z,4.80
2022-10-01T21:41:53.339Z,7.93
2022-10-01T21:44:37.328Z,4.30
2022-10-01T21:47:35.138Z,7.78
2022-10-01T21:50:20.633Z,6.30
2022-10-01T21:53:55.703Z,2.30
2022-10-01T21:56:51.009Z,2.63
2022-10-01T21:59:41.367Z,4.05
2022-10-01T22:02:42.834Z,7.22
2022-10-01T22:05:56.159Z,3.67
2022-10-01T22:08:43.540Z,3.33
2022-10-01T22:11:22.872Z,3.25
2022-10-01T22:14:07.381Z,5.75
2022-10-01T22:17:02.408Z,3.88
2022-10-01T22:19:39.845Z,5.40
2022-10-01T22:22:32.518Z,6.40
2022-10-01T22:25:04.425Z,6.78
2022-10-01T22:27:43.377Z,4.93
2022-10-01T22:30:19.619Z,4.68
2022-10-01T22:33:03.642Z,3.58
2022-10-01T22:38:57.547Z,3.35
2022-10-01T22:41:49.343Z,3.92
2022-10-01T22:44:22.593Z,3.92
2022-10-01T22:47:17.871Z,8.57
2022-10-01T22:52:45.479Z,4.22
2022-10-01T22:55:26.812Z,2.83
2022-10-01T22:58:17.439Z,8.95
2022-10-01T23:01:05.828Z,3.92
2022-10-01T23:03:49.461Z,5.63
2022-10-01T23:06:47.746Z,6.75
2022-10-01T23:09:34.908Z,4.80
2022-10-01T23:12:54.472Z,4.32
2022-10-01T23:15:43.892Z,4.57
2022-10-01T23:18:24.626Z,5.22
2022-10-01T23:21:08.710Z,5.75
2022-10-01T23:23:39.788Z,4.82
2022-10-01T23:26:38.504Z,8.82
2022-10-01T23:29:38.784Z,5.00
2022-10-01T23:32:28.049Z,6.55
2022-10-01T23:35:30.662Z,6.90
2022-10-01T23:38:18.026Z,3.80
2022-10-01T23:40:57.914Z,5.50
2022-10-01T23:43:37.282Z,6.20
2022-10-01T23:46:31.686Z,3.95
2022-10-01T23:49:27.512Z,6.05
2022-10-01T23:52:46.308Z,7.05
2022-10-01T23:55:57.907Z,8.57
2022-10-01T23:58:56.318Z,7.05
